sensor_id;sensor_type;location;lat;lon;timestamp;temperature;humidity
2010;DHT22;1008;47.404;8.502;2024-03-23T00:55:16;14.10;99.90
2010;DHT22;1008;47.404;8.502;2024-03-23T00:57:43;14.20;99.90
2010;DHT22;1008;47.404;8.502;2024-03-23T01:00:09;14.20;99.90
2010;DHT22;1008;47.404;8.502;2024-03-23T01:02:36;14.30;99.90
2010;DHT22;1008;47.404;8.502;2024-03-23T01:05:02;14.20;99.90
2010;DHT22;1008;47.404;8.502;2024-03-23T01:07:29;14.20;99.90
2010;DHT22;1008;47.404;8.502;2024-03-23T01:09:55;14.30;99.90
2010;DHT22;1008;47.404;8.502;2024-03-23T01:12:23;14.20;99.90
2010;DHT22;1008;47.404;8.502;2024-03-23T01:14:48;14.40;99.90
2010;DHT22;1008;47.404;8.502;2024-03-23T01:17:15;14.30;99.90
2010;DHT22;1008;47.404;8.502;2024-03-23T01:19:41;14.10;99.90
2010;DHT22;1008;47.404;8.502;2024-03-23T01:22:08;14.20;99.90
2010;DHT22;1008;47.404;8.502;2024-03-23T01:24:35;14.30;99.90
2010;DHT22;1008;47.404;8.502;2024-03-23T01:27:02;14.20;99.90
2010;DHT22;1008;47.404;8.502;2024-03-23T01:29:29;14.20;99.80
2010;DHT22;1008;47.404;8.502;2024-03-23T01:31:55;14.00;99.90
2010;DHT22;1008;47.404;8.502;2024-03-23T01:34:21;14.10;99.90
2010;DHT22;1008;47.404;8.502;2024-03-23T01:36:50;14.30;99.90
2010;DHT22;1008;47.404;8.502;2024-03-23T01:39:16;14.20;99.90
2010;DHT22;1008;47.404;8.502;2024-03-23T01:41:42;14.10;99.90
2010;DHT22;1008;47.404;8.502;2024-03-23T01:44:09;14.20;99.90
2010;DHT22;1008;47.404;8.502;2024-03-23T01:46:38;14.30;99.90
2010;DHT22;1008;47.404;8.502;2024-03-23T01:49:04;14.10;99.90
2010;DHT22;1008;47.404;8.502;2024-03-23T01:51:32;14.10;99.90
2010;DHT22;1008;47.404;8.502;2024-03-23T01:53:59;14.00;99.90
2010;DHT22;1008;47.404;8.502;2024-03-23T01:56:28;14.20;99.90
2010;DHT22;1008;47.404;8.502;2024-03-23T01:58:54;14.30;99.40
2010;DHT22;1008;47.404;8.502;2024-03-23T02:01:20;14.30;99.30
2010;DHT22;1008;47.404;8.502;2024-03-23T02:03:47;14.40;98.90
2010;DHT22;1008;47.404;8.502;2024-03-23T02:06:14;14.40;98.50
2010;DHT22;1008;47.404;8.502;2024-03-23T02:08:40;14.30;98.20
2010;DHT22;1008;47.404;8.502;2024-03-23T02:11:07;14.10;98.70
2010;DHT22;1008;47.404;8.502;2024-03-23T02:13:33;14.40;98.40
2010;DHT22;1008;47.404;8.502;2024-03-23T02:16:00;14.40;97.90
2010;DHT22;1008;47.404;8.502;2024-03-23T02:18:25;14.30;97.90
2010;DHT22;1008;47.404;8.502;2024-03-23T02:20:53;14.30;97.20
2010;DHT22;1008;47.404;8.502;2024-03-23T02:23:20;14.20;97.40
2010;DHT22;1008;47.404;8.502;2024-03-23T02:25:47;14.40;97.00
2010;DHT22;1008;47.404;8.502;2024-03-23T02:28:13;14.30;97.20
2010;DHT22;1008;47.404;8.502;2024-03-23T02:30:39;14.30;96.90
2010;DHT22;1008;47.404;8.502;2024-03-23T02:33:05;14.30;96.70
2010;DHT22;1008;47.404;8.502;2024-03-23T02:35:32;14.40;96.50
2010;DHT22;1008;47.404;8.502;2024-03-23T02:37:58;14.40;96.30
2010;DHT22;1008;47.404;8.502;2024-03-23T02:40:28;14.50;95.30
2010;DHT22;1008;47.404;8.502;2024-03-23T02:42:53;14.40;95.80
2010;DHT22;1008;47.404;8.502;2024-03-23T02:45:20;14.40;95.70
2010;DHT22;1008;47.404;8.502;2024-03-23T02:47:46;14.40;95.60
2010;DHT22;1008;47.404;8.502;2024-03-23T02:50:17;14.50;95.50
2010;DHT22;1008;47.404;8.502;2024-03-23T02:52:43;14.40;95.20
2010;DHT22;1008;47.404;8.502;2024-03-23T02:55:10;14.50;94.90
2010;DHT22;1008;47.404;8.502;2024-03-23T02:57:37;14.70;94.40
2010;DHT22;1008;47.404;8.502;2024-03-23T03:00:04;14.40;94.70
2010;DHT22;1008;47.404;8.502;2024-03-23T03:02:32;14.50;94.50
2010;DHT22;1008;47.404;8.502;2024-03-23T03:04:58;14.40;94.40
2010;DHT22;1008;47.404;8.502;2024-03-23T03:07:24;14.30;94.60
2010;DHT22;1008;47.404;8.502;2024-03-23T03:09:51;14.40;94.40
2010;DHT22;1008;47.404;8.502;2024-03-23T03:12:16;14.40;94.10
2010;DHT22;1008;47.404;8.502;2024-03-23T03:14:44;14.40;93.80
2010;DHT22;1008;47.404;8.502;2024-03-23T03:17:10;14.40;93.90
2010;DHT22;1008;47.404;8.502;2024-03-23T03:19:37;14.40;93.90
2010;DHT22;1008;47.404;8.502;2024-03-23T03:22:03;14.40;93.80
2010;DHT22;1008;47.404;8.502;2024-03-23T03:24:29;14.30;94.00
2010;DHT22;1008;47.404;8.502;2024-03-23T03:26:55;14.20;94.20
2010;DHT22;1008;47.404;8.502;2024-03-23T03:29:23;14.40;94.20
2010;DHT22;1008;47.404;8.502;2024-03-23T03:31:50;14.40;93.70
2010;DHT22;1008;47.404;8.502;2024-03-23T03:34:16;14.10;94.20
2010;DHT22;1008;47.404;8.502;2024-03-23T03:36:42;14.20;94.40
2010;DHT22;1008;47.404;8.502;2024-03-23T03:39:09;14.30;94.10
2010;DHT22;1008;47.404;8.502;2024-03-23T03:41:35;14.20;94.60
2010;DHT22;1008;47.404;8.502;2024-03-23T03:44:02;14.20;94.60
2010;DHT22;1008;47.404;8.502;2024-03-23T03:46:27;14.00;95.00
2010;DHT22;1008;47.404;8.502;2024-03-23T03:48:56;14.10;95.20
2010;DHT22;1008;47.404;8.502;2024-03-23T03:51:21;14.10;95.30
2010;DHT22;1008;47.404;8.502;2024-03-23T03:53:48;14.10;95.60
2010;DHT22;1008;47.404;8.502;2024-03-23T03:56:14;13.80;96.00
2010;DHT22;1008;47.404;8.502;2024-03-23T03:58:40;13.80;96.60
2010;DHT22;1008;47.404;8.502;2024-03-23T04:01:06;13.60;97.10
2010;DHT22;1008;47.404;8.502;2024-03-23T04:03:33;13.70;97.30
2010;DHT22;1008;47.404;8.502;2024-03-23T04:06:00;13.60;97.80
2010;DHT22;1008;47.404;8.502;2024-03-23T04:08:27;13.60;98.20
2010;DHT22;1008;47.404;8.502;2024-03-23T04:10:53;13.60;98.30
2010;DHT22;1008;47.404;8.502;2024-03-23T04:13:19;13.60;98.70
2010;DHT22;1008;47.404;8.502;2024-03-23T04:15:45;13.60;99.00
2010;DHT22;1008;47.404;8.502;2024-03-23T04:18:12;13.50;99.30
2010;DHT22;1008;47.404;8.502;2024-03-23T04:20:37;13.40;99.60
2010;DHT22;1008;47.404;8.502;2024-03-23T04:23:05;13.50;99.90
2010;DHT22;1008;47.404;8.502;2024-03-23T04:25:31;13.60;99.90
2010;DHT22;1008;47.404;8.502;2024-03-23T04:27:58;13.80;99.90
2010;DHT22;1008;47.404;8.502;2024-03-23T04:30:23;13.60;99.90
2010;DHT22;1008;47.404;8.502;2024-03-23T04:32:53;13.60;99.90
2010;DHT22;1008;47.404;8.502;2024-03-23T04:35:20;13.50;99.90
2010;DHT22;1008;47.404;8.502;2024-03-23T04:37:47;13.70;99.90
2010;DHT22;1008;47.404;8.502;2024-03-23T04:40:15;13.60;99.90
2010;DHT22;1008;47.404;8.502;2024-03-23T04:42:42;13.70;99.90
2010;DHT22;1008;47.404;8.502;2024-03-23T04:45:09;13.90;99.90
2010;DHT22;1008;47.404;8.502;2024-03-23T04:47:36;13.70;99.90
2010;DHT22;1008;47.404;8.502;2024-03-23T04:50:03;13.60;99.90
2010;DHT22;1008;47.404;8.502;2024-03-23T04:52:30;13.70;99.90
2010;DHT22;1008;47.404;8.502;2024-03-23T04:54:56;13.90;99.90
2010;DHT22;1008;47.404;8.502;2024-03-23T04:57:24;13.60;99.90
2010;DHT22;1008;47.404;8.502;2024-03-23T04:59:51;13.70;99.90
2010;DHT22;1008;47.404;8.502;2024-03-23T05:02:17;13.80;99.90
2010;DHT22;1008;47.404;8.502;2024-03-23T05:04:44;13.90;99.90
2010;DHT22;1008;47.404;8.502;2024-03-23T05:07:10;13.70;99.90
2010;DHT22;1008;47.404;8.502;2024-03-23T05:09:36;13.60;99.90
2010;DHT22;1008;47.404;8.502;2024-03-23T05:12:02;13.60;99.90
2010;DHT22;1008;47.404;8.502;2024-03-23T05:14:30;13.90;99.90
2010;DHT22;1008;47.404;8.502;2024-03-23T05:16:56;13.80;99.90
2010;DHT22;1008;47.404;8.502;2024-03-23T05:19:23;13.90;99.90
2010;DHT22;1008;47.404;8.502;2024-03-23T05:21:49;13.90;99.90
2010;DHT22;1008;47.404;8.502;2024-03-23T05:24:15;13.90;99.90
2010;DHT22;1008;47.404;8.502;2024-03-23T05:26:41;13.90;99.90
2010;DHT22;1008;47.404;8.502;2024-03-23T05:29:08;13.90;99.90
2010;DHT22;1008;47.404;8.502;2024-03-23T05:31:37;13.20;99.90
2010;DHT22;1008;47.404;8.502;2024-03-23T05:34:07;12.60;99.90
2010;DHT22;1008;47.404;8.502;2024-03-23T05:36:32;12.00;99.90
2010;DHT22;1008;47.404;8.502;2024-03-23T05:38:59;11.90;99.90
2010;DHT22;1008;47.404;8.502;2024-03-23T05:41:25;11.90;99.90
2010;DHT22;1008;47.404;8.502;2024-03-23T05:43:51;12.00;99.90
2010;DHT22;1008;47.404;8.502;2024-03-23T05:46:17;12.10;99.90
2010;DHT22;1008;47.404;8.502;2024-03-23T05:48:45;12.40;99.90
2010;DHT22;1008;47.404;8.502;2024-03-23T05:51:11;12.10;99.90
2010;DHT22;1008;47.404;8.502;2024-03-23T05:53:38;11.90;99.90
2010;DHT22;1008;47.404;8.502;2024-03-23T05:56:05;11.90;99.90
2010;DHT22;1008;47.404;8.502;2024-03-23T05:58:32;11.80;99.90
2010;DHT22;1008;47.404;8.502;2024-03-23T06:00:59;11.70;99.90
2010;DHT22;1008;47.404;8.502;2024-03-23T06:03:27;11.60;99.90
2010;DHT22;1008;47.404;8.502;2024-03-23T06:05:54;11.60;99.90
2010;DHT22;1008;47.404;8.502;2024-03-23T06:08:21;11.40;99.90
2010;DHT22;1008;47.404;8.502;2024-03-23T06:10:47;11.30;99.90
2010;DHT22;1008;47.404;8.502;2024-03-23T06:13:13;11.20;99.90
2010;DHT22;1008;47.404;8.502;2024-03-23T06:15:39;11.30;99.90
2010;DHT22;1008;47.404;8.502;2024-03-23T06:18:06;11.00;99.90
2010;DHT22;1008;47.404;8.502;2024-03-23T06:20:33;10.80;99.90
2010;DHT22;1008;47.404;8.502;2024-03-23T06:23:01;10.70;99.90
2010;DHT22;1008;47.404;8.502;2024-03-23T06:25:27;10.60;99.90
2010;DHT22;1008;47.404;8.502;2024-03-23T06:27:53;10.50;99.90
2010;DHT22;1008;47.404;8.502;2024-03-23T06:30:19;10.50;99.90
2010;DHT22;1008;47.404;8.502;2024-03-23T06:32:46;10.60;99.90
2010;DHT22;1008;47.404;8.502;2024-03-23T06:35:12;10.40;99.90
2010;DHT22;1008;47.404;8.502;2024-03-23T06:37:38;10.30;99.90
2010;DHT22;1008;47.404;8.502;2024-03-23T06:40:07;10.20;99.90
2010;DHT22;1008;47.404;8.502;2024-03-23T06:42:35;10.20;99.90
2010;DHT22;1008;47.404;8.502;2024-03-23T06:45:01;10.30;99.90
2010;DHT22;1008;47.404;8.502;2024-03-23T06:47:28;10.20;99.90
2010;DHT22;1008;47.404;8.502;2024-03-23T06:49:54;10.20;99.90
2010;DHT22;1008;47.404;8.502;2024-03-23T06:52:20;10.20;99.90
2010;DHT22;1008;47.404;8.502;2024-03-23T06:54:46;10.20;99.90
2010;DHT22;1008;47.404;8.502;2024-03-23T06:57:14;10.30;99.90
2010;DHT22;1008;47.404;8.502;2024-03-23T06:59:40;10.30;99.90
2010;DHT22;1008;47.404;8.502;2024-03-23T07:02:07;10.40;99.90
2010;DHT22;1008;47.404;8.502;2024-03-23T07:04:33;10.50;99.90
2010;DHT22;1008;47.404;8.502;2024-03-23T07:07:00;10.50;99.90
2010;DHT22;1008;47.404;8.502;2024-03-23T07:09:27;10.50;99.90
2010;DHT22;1008;47.404;8.502;2024-03-23T07:11:54;10.50;99.90
2010;DHT22;1008;47.404;8.502;2024-03-23T07:14:21;10.40;99.90
2010;DHT22;1008;47.404;8.502;2024-03-23T07:16:47;10.40;99.90
2010;DHT22;1008;47.404;8.502;2024-03-23T07:19:14;10.40;99.90
2010;DHT22;1008;47.404;8.502;2024-03-23T07:21:42;10.40;99.90
2010;DHT22;1008;47.404;8.502;2024-03-23T07:24:08;10.50;99.90
2010;DHT22;1008;47.404;8.502;2024-03-23T07:26:34;10.50;99.90
2010;DHT22;1008;47.404;8.502;2024-03-23T07:29:00;10.50;99.90
2010;DHT22;1008;47.404;8.502;2024-03-23T07:31:28;10.50;99.90
2010;DHT22;1008;47.404;8.502;2024-03-23T07:33:54;10.40;99.90
2010;DHT22;1008;47.404;8.502;2024-03-23T07:36:21;10.50;99.90
2010;DHT22;1008;47.404;8.502;2024-03-23T07:38:46;10.30;99.90
2010;DHT22;1008;47.404;8.502;2024-03-23T07:41:16;10.40;99.90
2010;DHT22;1008;47.404;8.502;2024-03-23T07:43:43;10.50;99.90
2010;DHT22;1008;47.404;8.502;2024-03-23T07:46:10;10.50;99.90
2010;DHT22;1008;47.404;8.502;2024-03-23T07:48:39;10.50;99.90
2010;DHT22;1008;47.404;8.502;2024-03-23T07:51:09;10.40;99.90
2010;DHT22;1008;47.404;8.502;2024-03-23T07:53:35;10.30;99.90
2010;DHT22;1008;47.404;8.502;2024-03-23T07:56:05;10.10;99.90
2010;DHT22;1008;47.404;8.502;2024-03-23T07:58:30;9.60;99.90
2010;DHT22;1008;47.404;8.502;2024-03-23T08:01:04;9.30;99.90
2010;DHT22;1008;47.404;8.502;2024-03-23T08:03:30;9.20;99.90
2010;DHT22;1008;47.404;8.502;2024-03-23T08:05:58;9.10;99.90
2010;DHT22;1008;47.404;8.502;2024-03-23T08:08:31;9.00;99.90
2010;DHT22;1008;47.404;8.502;2024-03-23T08:10:58;9.00;99.90
2010;DHT22;1008;47.404;8.502;2024-03-23T08:13:24;8.90;99.90
2010;DHT22;1008;47.404;8.502;2024-03-23T08:15:50;8.90;99.90
2010;DHT22;1008;47.404;8.502;2024-03-23T08:18:16;8.90;99.90
2010;DHT22;1008;47.404;8.502;2024-03-23T08:20:43;8.70;99.90
2010;DHT22;1008;47.404;8.502;2024-03-23T08:23:10;8.60;99.90
2010;DHT22;1008;47.404;8.502;2024-03-23T08:25:36;8.60;99.90
2010;DHT22;1008;47.404;8.502;2024-03-23T08:28:03;8.60;99.90
2010;DHT22;1008;47.404;8.502;2024-03-23T08:30:29;8.50;99.90
2010;DHT22;1008;47.404;8.502;2024-03-23T08:32:56;8.50;99.90
2010;DHT22;1008;47.404;8.502;2024-03-23T08:35:21;8.50;99.90
2010;DHT22;1008;47.404;8.502;2024-03-23T08:37:48;8.60;99.90
2010;DHT22;1008;47.404;8.502;2024-03-23T08:40:15;8.60;99.90
2010;DHT22;1008;47.404;8.502;2024-03-23T08:42:42;8.40;99.90
2010;DHT22;1008;47.404;8.502;2024-03-23T08:45:08;8.40;99.90
2010;DHT22;1008;47.404;8.502;2024-03-23T08:47:35;8.40;99.90
2010;DHT22;1008;47.404;8.502;2024-03-23T08:50:01;8.30;99.90
2010;DHT22;1008;47.404;8.502;2024-03-23T08:52:28;8.40;99.90
2010;DHT22;1008;47.404;8.502;2024-03-23T08:54:55;8.30;99.90
2010;DHT22;1008;47.404;8.502;2024-03-23T08:57:23;8.30;99.90
2010;DHT22;1008;47.404;8.502;2024-03-23T08:59:49;8.30;99.90
2010;DHT22;1008;47.404;8.502;2024-03-23T09:02:16;8.20;99.90
2010;DHT22;1008;47.404;8.502;2024-03-23T09:04:42;8.50;99.90
2010;DHT22;1008;47.404;8.502;2024-03-23T09:07:09;8.70;99.90
2010;DHT22;1008;47.404;8.502;2024-03-23T09:09:34;8.70;99.90
2010;DHT22;1008;47.404;8.502;2024-03-23T09:12:02;8.60;99.90
2010;DHT22;1008;47.404;8.502;2024-03-23T09:14:29;8.60;99.90
2010;DHT22;1008;47.404;8.502;2024-03-23T09:16:56;8.50;99.90
2010;DHT22;1008;47.404;8.502;2024-03-23T09:19:21;8.30;99.90
2010;DHT22;1008;47.404;8.502;2024-03-23T09:21:49;8.30;99.90
2010;DHT22;1008;47.404;8.502;2024-03-23T09:24:15;8.30;99.90
2010;DHT22;1008;47.404;8.502;2024-03-23T09:26:41;8.30;99.90
2010;DHT22;1008;47.404;8.502;2024-03-23T09:29:07;8.50;99.90
2010;DHT22;1008;47.404;8.502;2024-03-23T09:31:35;8.30;99.90
2010;DHT22;1008;47.404;8.502;2024-03-23T09:34:03;8.40;99.90
2010;DHT22;1008;47.404;8.502;2024-03-23T09:36:30;8.50;99.90
2010;DHT22;1008;47.404;8.502;2024-03-23T09:38:55;8.50;99.90
2010;DHT22;1008;47.404;8.502;2024-03-23T09:41:22;8.40;99.90
2010;DHT22;1008;47.404;8.502;2024-03-23T09:43:48;8.50;99.90
2010;DHT22;1008;47.404;8.502;2024-03-23T09:46:18;8.20;99.90
2010;DHT22;1008;47.404;8.502;2024-03-23T09:48:46;8.50;99.90
2010;DHT22;1008;47.404;8.502;2024-03-23T09:51:13;8.70;99.90
2010;DHT22;1008;47.404;8.502;2024-03-23T09:53:39;8.70;99.90
2010;DHT22;1008;47.404;8.502;2024-03-23T09:56:07;8.70;99.90
2010;DHT22;1008;47.404;8.502;2024-03-23T09:58:33;8.70;99.90
2010;DHT22;1008;47.404;8.502;2024-03-23T10:01:01;8.60;99.90
2010;DHT22;1008;47.404;8.502;2024-03-23T10:03:27;8.40;99.90
2010;DHT22;1008;47.404;8.502;2024-03-23T10:06:03;8.50;99.90
2010;DHT22;1008;47.404;8.502;2024-03-23T10:08:29;8.60;99.90
2010;DHT22;1008;47.404;8.502;2024-03-23T10:10:56;8.60;99.90
2010;DHT22;1008;47.404;8.502;2024-03-23T10:13:26;8.60;99.90
2010;DHT22;1008;47.404;8.502;2024-03-23T10:15:56;8.60;99.90
2010;DHT22;1008;47.404;8.502;2024-03-23T10:18:22;8.60;99.90
2010;DHT22;1008;47.404;8.502;2024-03-23T10:20:51;8.50;99.90
2010;DHT22;1008;47.404;8.502;2024-03-23T10:23:19;8.60;99.90
2010;DHT22;1008;47.404;8.502;2024-03-23T10:25:45;8.60;99.90
2010;DHT22;1008;47.404;8.502;2024-03-23T10:28:11;8.70;99.90
2010;DHT22;1008;47.404;8.502;2024-03-23T10:30:38;8.70;99.90
2010;DHT22;1008;47.404;8.502;2024-03-23T10:33:07;8.60;99.90
2010;DHT22;1008;47.404;8.502;2024-03-23T10:35:34;8.70;99.90
2010;DHT22;1008;47.404;8.502;2024-03-23T10:38:01;9.00;99.90
2010;DHT22;1008;47.404;8.502;2024-03-23T10:40:30;8.90;99.90
2010;DHT22;1008;47.404;8.502;2024-03-23T10:42:57;8.90;99.90
2010;DHT22;1008;47.404;8.502;2024-03-23T10:45:25;9.00;99.90
2010;DHT22;1008;47.404;8.502;2024-03-23T10:47:51;9.10;99.90
2010;DHT22;1008;47.404;8.502;2024-03-23T10:50:18;9.10;99.90
2010;DHT22;1008;47.404;8.502;2024-03-23T10:52:47;9.10;99.90
2010;DHT22;1008;47.404;8.502;2024-03-23T10:55:17;9.20;99.90
2010;DHT22;1008;47.404;8.502;2024-03-23T10:57:49;9.60;99.90
2010;DHT22;1008;47.404;8.502;2024-03-23T11:00:17;9.60;98.70
2010;DHT22;1008;47.404;8.502;2024-03-23T11:02:44;9.60;99.40
2010;DHT22;1008;47.404;8.502;2024-03-23T11:05:28;9.60;98.80
2010;DHT22;1008;47.404;8.502;2024-03-23T11:07:54;9.70;99.00
2010;DHT22;1008;47.404;8.502;2024-03-23T11:10:28;9.60;97.30
2010;DHT22;1008;47.404;8.502;2024-03-23T11:12:57;9.60;94.30
2010;DHT22;1008;47.404;8.502;2024-03-23T11:15:24;10.20;93.80
2010;DHT22;1008;47.404;8.502;2024-03-23T11:18:02;10.30;90.20
2010;DHT22;1008;47.404;8.502;2024-03-23T11:20:34;10.80;88.50
2010;DHT22;1008;47.404;8.502;2024-03-23T11:23:00;10.60;82.80
2010;DHT22;1008;47.404;8.502;2024-03-23T11:25:27;10.50;82.80
2010;DHT22;1008;47.404;8.502;2024-03-23T11:27:55;10.50;80.90
2010;DHT22;1008;47.404;8.502;2024-03-23T11:30:24;10.50;78.20
2010;DHT22;1008;47.404;8.502;2024-03-23T11:32:51;10.40;77.10
2010;DHT22;1008;47.404;8.502;2024-03-23T11:35:29;10.40;78.00
2010;DHT22;1008;47.404;8.502;2024-03-23T11:38:08;10.20;99.90
2010;DHT22;1008;47.404;8.502;2024-03-23T11:40:36;10.20;99.90
2010;DHT22;1008;47.404;8.502;2024-03-23T11:43:04;10.10;99.90
2010;DHT22;1008;47.404;8.502;2024-03-23T11:45:35;10.10;99.90
2010;DHT22;1008;47.404;8.502;2024-03-23T11:48:05;10.50;99.90
2010;DHT22;1008;47.404;8.502;2024-03-23T11:50:33;10.60;99.90
2010;DHT22;1008;47.404;8.502;2024-03-23T11:53:11;10.30;99.90
2010;DHT22;1008;47.404;8.502;2024-03-23T11:55:46;10.50;99.90
2010;DHT22;1008;47.404;8.502;2024-03-23T11:58:14;10.90;99.90
2010;DHT22;1008;47.404;8.502;2024-03-23T12:00:41;11.10;99.90
2010;DHT22;1008;47.404;8.502;2024-03-23T12:03:07;11.20;99.90
2010;DHT22;1008;47.404;8.502;2024-03-23T12:05:36;11.60;99.90
2010;DHT22;1008;47.404;8.502;2024-03-23T12:08:22;11.60;99.90
2010;DHT22;1008;47.404;8.502;2024-03-23T12:10:50;12.10;99.90
2010;DHT22;1008;47.404;8.502;2024-03-23T12:13:19;12.00;99.90
2010;DHT22;1008;47.404;8.502;2024-03-23T12:15:46;11.90;99.90
2010;DHT22;1008;47.404;8.502;2024-03-23T12:18:13;11.80;99.90
2010;DHT22;1008;47.404;8.502;2024-03-23T12:20:40;11.20;99.90
2010;DHT22;1008;47.404;8.502;2024-03-23T12:23:10;10.00;99.90
2010;DHT22;1008;47.404;8.502;2024-03-23T12:25:37;9.50;99.90
2010;DHT22;1008;47.404;8.502;2024-03-23T12:28:04;9.20;99.90
2010;DHT22;1008;47.404;8.502;2024-03-23T12:30:33;9.30;99.90
2010;DHT22;1008;47.404;8.502;2024-03-23T12:32:59;9.60;99.90
2010;DHT22;1008;47.404;8.502;2024-03-23T12:35:26;10.00;99.90
2010;DHT22;1008;47.404;8.502;2024-03-23T12:37:51;10.00;99.90
2010;DHT22;1008;47.404;8.502;2024-03-23T12:40:18;9.40;99.90
2010;DHT22;1008;47.404;8.502;2024-03-23T12:42:44;9.40;99.90
2010;DHT22;1008;47.404;8.502;2024-03-23T12:45:10;9.70;99.90
2010;DHT22;1008;47.404;8.502;2024-03-23T12:47:37;10.30;99.90
2010;DHT22;1008;47.404;8.502;2024-03-23T12:50:05;10.30;98.30
2010;DHT22;1008;47.404;8.502;2024-03-23T12:52:31;10.30;97.00
2010;DHT22;1008;47.404;8.502;2024-03-23T12:54:58;10.30;97.60
2010;DHT22;1008;47.404;8.502;2024-03-23T12:57:24;10.60;96.70
2010;DHT22;1008;47.404;8.502;2024-03-23T12:59:51;10.50;95.40
2010;DHT22;1008;47.404;8.502;2024-03-23T13:02:18;10.60;95.40
2010;DHT22;1008;47.404;8.502;2024-03-23T13:04:49;10.90;94.60
2010;DHT22;1008;47.404;8.502;2024-03-23T13:07:14;10.80;94.00
2010;DHT22;1008;47.404;8.502;2024-03-23T13:09:41;10.70;94.50
2010;DHT22;1008;47.404;8.502;2024-03-23T13:12:08;10.50;95.20
2010;DHT22;1008;47.404;8.502;2024-03-23T13:14:34;10.80;94.90
2010;DHT22;1008;47.404;8.502;2024-03-23T13:17:00;10.90;94.60
2010;DHT22;1008;47.404;8.502;2024-03-23T13:19:29;11.20;95.50
2010;DHT22;1008;47.404;8.502;2024-03-23T13:21:58;11.50;95.50
2010;DHT22;1008;47.404;8.502;2024-03-23T13:24:25;11.80;92.50
2010;DHT22;1008;47.404;8.502;2024-03-23T13:26:51;12.00;95.00
2010;DHT22;1008;47.404;8.502;2024-03-23T13:29:19;12.00;95.60
2010;DHT22;1008;47.404;8.502;2024-03-23T13:31:44;11.40;87.80
2010;DHT22;1008;47.404;8.502;2024-03-23T13:34:11;10.90;83.30
2010;DHT22;1008;47.404;8.502;2024-03-23T13:36:38;11.20;99.90
2010;DHT22;1008;47.404;8.502;2024-03-23T13:39:06;11.40;99.90
2010;DHT22;1008;47.404;8.502;2024-03-23T13:41:37;11.70;99.90
2010;DHT22;1008;47.404;8.502;2024-03-23T13:44:04;11.80;99.90
2010;DHT22;1008;47.404;8.502;2024-03-23T13:46:30;11.70;99.90
2010;DHT22;1008;47.404;8.502;2024-03-23T13:48:57;11.30;99.90
2010;DHT22;1008;47.404;8.502;2024-03-23T13:51:23;11.00;99.90
2010;DHT22;1008;47.404;8.502;2024-03-23T13:53:50;10.80;99.90
2010;DHT22;1008;47.404;8.502;2024-03-23T13:56:18;10.70;99.90
2010;DHT22;1008;47.404;8.502;2024-03-23T13:58:44;10.80;99.90
2010;DHT22;1008;47.404;8.502;2024-03-23T14:01:13;11.40;99.90
2010;DHT22;1008;47.404;8.502;2024-03-23T14:03:39;12.00;99.90
2010;DHT22;1008;47.404;8.502;2024-03-23T14:06:06;12.20;99.90
2010;DHT22;1008;47.404;8.502;2024-03-23T14:08:33;11.50;99.90
2010;DHT22;1008;47.404;8.502;2024-03-23T14:11:02;11.30;99.90
2010;DHT22;1008;47.404;8.502;2024-03-23T14:13:30;11.00;99.90
2010;DHT22;1008;47.404;8.502;2024-03-23T14:15:56;11.20;99.90
2010;DHT22;1008;47.404;8.502;2024-03-23T14:18:23;11.40;99.90
2010;DHT22;1008;47.404;8.502;2024-03-23T14:20:49;11.40;99.90
2010;DHT22;1008;47.404;8.502;2024-03-23T14:23:16;11.30;99.90
2010;DHT22;1008;47.404;8.502;2024-03-23T14:25:41;10.90;99.90
2010;DHT22;1008;47.404;8.502;2024-03-23T14:28:08;11.00;99.90
2010;DHT22;1008;47.404;8.502;2024-03-23T14:30:41;10.90;99.90
2010;DHT22;1008;47.404;8.502;2024-03-23T14:33:08;10.90;99.90
2010;DHT22;1008;47.404;8.502;2024-03-23T14:35:34;11.20;99.90
2010;DHT22;1008;47.404;8.502;2024-03-23T14:38:00;11.10;99.90
2010;DHT22;1008;47.404;8.502;2024-03-23T14:40:26;10.90;99.90
2010;DHT22;1008;47.404;8.502;2024-03-23T14:42:53;10.50;99.90
2010;DHT22;1008;47.404;8.502;2024-03-23T14:45:19;10.60;99.90
2010;DHT22;1008;47.404;8.502;2024-03-23T14:47:47;10.40;99.90
2010;DHT22;1008;47.404;8.502;2024-03-23T14:50:13;10.80;99.90
2010;DHT22;1008;47.404;8.502;2024-03-23T14:52:41;10.80;99.90
2010;DHT22;1008;47.404;8.502;2024-03-23T14:55:07;11.00;99.90
2010;DHT22;1008;47.404;8.502;2024-03-23T14:57:35;10.90;99.90
2010;DHT22;1008;47.404;8.502;2024-03-23T15:00:01;11.10;99.90
2010;DHT22;1008;47.404;8.502;2024-03-23T15:02:30;11.30;99.90
2010;DHT22;1008;47.404;8.502;2024-03-23T15:04:58;11.40;99.90
2010;DHT22;1008;47.404;8.502;2024-03-23T15:07:25;11.10;99.90
2010;DHT22;1008;47.404;8.502;2024-03-23T15:09:51;11.40;99.90
2010;DHT22;1008;47.404;8.502;2024-03-23T15:12:19;11.60;99.90
2010;DHT22;1008;47.404;8.502;2024-03-23T15:14:44;11.20;99.90
2010;DHT22;1008;47.404;8.502;2024-03-23T15:17:12;10.90;99.90
2010;DHT22;1008;47.404;8.502;2024-03-23T15:19:38;10.90;99.90
2010;DHT22;1008;47.404;8.502;2024-03-23T15:22:06;10.80;99.90
2010;DHT22;1008;47.404;8.502;2024-03-23T15:24:32;10.80;99.90
2010;DHT22;1008;47.404;8.502;2024-03-23T15:27:00;10.80;99.90
2010;DHT22;1008;47.404;8.502;2024-03-23T15:29:26;10.80;99.90
2010;DHT22;1008;47.404;8.502;2024-03-23T15:31:52;10.80;99.90
2010;DHT22;1008;47.404;8.502;2024-03-23T15:34:18;10.70;99.90
2010;DHT22;1008;47.404;8.502;2024-03-23T15:36:47;10.70;99.90
2010;DHT22;1008;47.404;8.502;2024-03-23T15:39:14;10.80;99.90
2010;DHT22;1008;47.404;8.502;2024-03-23T15:41:41;10.70;99.90
2010;DHT22;1008;47.404;8.502;2024-03-23T15:44:08;10.80;99.90
2010;DHT22;1008;47.404;8.502;2024-03-23T15:46:35;11.00;99.90
2010;DHT22;1008;47.404;8.502;2024-03-23T15:49:01;10.60;99.90
2010;DHT22;1008;47.404;8.502;2024-03-23T15:51:28;10.60;99.90
2010;DHT22;1008;47.404;8.502;2024-03-23T15:53:58;10.60;99.90
2010;DHT22;1008;47.404;8.502;2024-03-23T15:56:26;10.60;99.90
2010;DHT22;1008;47.404;8.502;2024-03-23T15:58:52;10.70;99.90
2010;DHT22;1008;47.404;8.502;2024-03-23T16:01:19;10.60;99.90
2010;DHT22;1008;47.404;8.502;2024-03-23T16:03:45;10.70;99.90
2010;DHT22;1008;47.404;8.502;2024-03-23T16:06:11;10.50;99.90
2010;DHT22;1008;47.404;8.502;2024-03-23T16:08:37;10.30;99.90
2010;DHT22;1008;47.404;8.502;2024-03-23T16:11:05;10.20;99.90
2010;DHT22;1008;47.404;8.502;2024-03-23T16:13:33;10.20;99.90
2010;DHT22;1008;47.404;8.502;2024-03-23T16:16:01;10.20;99.90
2010;DHT22;1008;47.404;8.502;2024-03-23T16:18:29;10.20;99.90
2010;DHT22;1008;47.404;8.502;2024-03-23T16:20:57;10.30;99.90
2010;DHT22;1008;47.404;8.502;2024-03-23T16:23:24;10.30;99.90
2010;DHT22;1008;47.404;8.502;2024-03-23T16:25:51;10.40;99.90
2010;DHT22;1008;47.404;8.502;2024-03-23T16:28:25;10.30;99.90
2010;DHT22;1008;47.404;8.502;2024-03-23T16:30:55;10.30;99.90
2010;DHT22;1008;47.404;8.502;2024-03-23T16:33:21;10.30;99.90
2010;DHT22;1008;47.404;8.502;2024-03-23T16:35:55;10.30;99.90
2010;DHT22;1008;47.404;8.502;2024-03-23T16:38:21;10.30;99.90
2010;DHT22;1008;47.404;8.502;2024-03-23T16:40:56;10.20;99.90
2010;DHT22;1008;47.404;8.502;2024-03-23T16:43:22;10.10;99.90
2010;DHT22;1008;47.404;8.502;2024-03-23T16:45:57;10.20;99.90
2010;DHT22;1008;47.404;8.502;2024-03-23T16:48:24;9.90;99.90
2010;DHT22;1008;47.404;8.502;2024-03-23T16:50:52;9.90;99.90
2010;DHT22;1008;47.404;8.502;2024-03-23T16:53:18;10.10;99.90
2010;DHT22;1008;47.404;8.502;2024-03-23T16:55:45;9.90;99.90
2010;DHT22;1008;47.404;8.502;2024-03-23T16:58:10;9.60;99.90